sensor_id;sensor_type;location;lat;lon;timestamp;P1;durP1;ratioP1;P2;durP2;ratioP2
53718;SDS011;39616;48.872;9.390;2023-01-28T00:01:16;10.30;;;4.75;;
53718;SDS011;39616;48.872;9.390;2023-01-28T00:03:50;9.68;;;5.30;;
53718;SDS011;39616;48.872;9.390;2023-01-28T00:06:23;8.63;;;5.05;;
53718;SDS011;39616;48.872;9.390;2023-01-28T00:08:54;12.73;;;5.38;;
53718;SDS011;39616;48.872;9.390;2023-01-28T00:11:24;8.77;;;4.57;;
53718;SDS011;39616;48.872;9.390;2023-01-28T00:13:55;9.63;;;4.90;;
53718;SDS011;39616;48.872;9.390;2023-01-28T00:16:25;12.80;;;6.03;;
53718;SDS011;39616;48.872;9.390;2023-01-28T00:18:57;13.48;;;5.47;;
53718;SDS011;39616;48.872;9.390;2023-01-28T00:21:27;10.70;;;6.05;;
53718;SDS011;39616;48.872;9.390;2023-01-28T00:23:58;8.82;;;5.63;;
53718;SDS011;39616;48.872;9.390;2023-01-28T00:26:28;7.50;;;4.18;;
53718;SDS011;39616;48.872;9.390;2023-01-28T00:28:58;6.88;;;4.70;;
53718;SDS011;39616;48.872;9.390;2023-01-28T00:31:29;11.68;;;5.75;;
53718;SDS011;39616;48.872;9.390;2023-01-28T00:33:59;10.98;;;5.25;;
53718;SDS011;39616;48.872;9.390;2023-01-28T00:36:30;9.15;;;5.18;;
53718;SDS011;39616;48.872;9.390;2023-01-28T00:39:00;7.97;;;4.40;;
53718;SDS011;39616;48.872;9.390;2023-01-28T00:41:31;7.50;;;4.30;;
53718;SDS011;39616;48.872;9.390;2023-01-28T00:44:01;7.45;;;4.55;;
53718;SDS011;39616;48.872;9.390;2023-01-28T00:46:31;7.65;;;3.85;;
53718;SDS011;39616;48.872;9.390;2023-01-28T00:49:02;11.32;;;4.85;;
53718;SDS011;39616;48.872;9.390;2023-01-28T00:51:32;9.70;;;6.10;;
53718;SDS011;39616;48.872;9.390;2023-01-28T00:54:03;6.50;;;4.03;;
53718;SDS011;39616;48.872;9.390;2023-01-28T00:56:33;8.82;;;4.10;;
53718;SDS011;39616;48.872;9.390;2023-01-28T00:59:05;10.18;;;4.55;;
53718;SDS011;39616;48.872;9.390;2023-01-28T01:01:36;9.93;;;5.50;;
53718;SDS011;39616;48.872;9.390;2023-01-28T01:04:06;10.05;;;4.13;;
53718;SDS011;39616;48.872;9.390;2023-01-28T01:06:37;7.07;;;4.13;;
53718;SDS011;39616;48.872;9.390;2023-01-28T01:09:09;7.63;;;4.10;;
53718;SDS011;39616;48.872;9.390;2023-01-28T01:11:40;9.00;;;4.57;;
53718;SDS011;39616;48.872;9.390;2023-01-28T01:14:10;8.07;;;4.50;;
53718;SDS011;39616;48.872;9.390;2023-01-28T01:16:41;8.48;;;4.10;;
53718;SDS011;39616;48.872;9.390;2023-01-28T01:19:11;8.35;;;4.75;;
53718;SDS011;39616;48.872;9.390;2023-01-28T01:21:41;9.75;;;4.10;;
53718;SDS011;39616;48.872;9.390;2023-01-28T01:24:11;9.15;;;5.35;;
53718;SDS011;39616;48.872;9.390;2023-01-28T01:26:42;7.20;;;3.67;;
53718;SDS011;39616;48.872;9.390;2023-01-28T01:29:12;7.20;;;4.32;;
53718;SDS011;39616;48.872;9.390;2023-01-28T01:31:42;7.45;;;3.92;;
53718;SDS011;39616;48.872;9.390;2023-01-28T01:34:14;7.82;;;4.28;;
53718;SDS011;39616;48.872;9.390;2023-01-28T01:36:44;8.07;;;4.43;;
53718;SDS011;39616;48.872;9.390;2023-01-28T01:39:14;7.60;;;4.07;;
53718;SDS011;39616;48.872;9.390;2023-01-28T01:41:45;7.60;;;4.47;;
53718;SDS011;39616;48.872;9.390;2023-01-28T01:45:16;6.75;;;3.83;;
53718;SDS011;39616;48.872;9.390;2023-01-28T01:49:57;8.52;;;4.35;;
53718;SDS011;39616;48.872;9.390;2023-01-28T01:52:32;7.20;;;3.92;;
53718;SDS011;39616;48.872;9.390;2023-01-28T01:55:06;7.82;;;4.05;;
53718;SDS011;39616;48.872;9.390;2023-01-28T01:57:41;9.07;;;4.47;;
53718;SDS011;39616;48.872;9.390;2023-01-28T02:00:13;7.80;;;4.07;;
53718;SDS011;39616;48.872;9.390;2023-01-28T02:02:45;8.98;;;4.45;;
53718;SDS011;39616;48.872;9.390;2023-01-28T02:05:18;7.95;;;4.10;;
53718;SDS011;39616;48.872;9.390;2023-01-28T02:07:53;9.05;;;4.30;;
53718;SDS011;39616;48.872;9.390;2023-01-28T02:10:57;7.73;;;4.53;;
53718;SDS011;39616;48.872;9.390;2023-01-28T02:13:34;7.73;;;3.83;;
53718;SDS011;39616;48.872;9.390;2023-01-28T02:16:08;8.98;;;4.22;;
53718;SDS011;39616;48.872;9.390;2023-01-28T02:18:40;8.27;;;4.18;;
53718;SDS011;39616;48.872;9.390;2023-01-28T02:34:58;9.60;;;5.97;;
53718;SDS011;39616;48.872;9.390;2023-01-28T02:40:30;8.93;;;4.82;;
53718;SDS011;39616;48.872;9.390;2023-01-28T02:43:31;8.75;;;5.07;;
53718;SDS011;39616;48.872;9.390;2023-01-28T02:46:20;10.30;;;5.32;;
53718;SDS011;39616;48.872;9.390;2023-01-28T02:49:27;8.48;;;4.97;;
53718;SDS011;39616;48.872;9.390;2023-01-28T03:06:29;9.90;;;5.68;;
53718;SDS011;39616;48.872;9.390;2023-01-28T03:09:05;10.18;;;5.90;;
53718;SDS011;39616;48.872;9.390;2023-01-28T03:14:49;12.82;;;6.93;;
53718;SDS011;39616;48.872;9.390;2023-01-28T03:17:42;11.98;;;6.35;;
53718;SDS011;39616;48.872;9.390;2023-01-28T03:20:36;11.35;;;6.78;;
53718;SDS011;39616;48.872;9.390;2023-01-28T03:23:31;13.27;;;6.47;;
53718;SDS011;39616;48.872;9.390;2023-01-28T03:26:29;16.10;;;6.60;;
53718;SDS011;39616;48.872;9.390;2023-01-28T03:29:23;12.05;;;7.00;;
53718;SDS011;39616;48.872;9.390;2023-01-28T03:32:17;14.63;;;7.10;;
53718;SDS011;39616;48.872;9.390;2023-01-28T03:35:07;14.77;;;7.05;;
53718;SDS011;39616;48.872;9.390;2023-01-28T03:38:01;12.43;;;7.18;;
53718;SDS011;39616;48.872;9.390;2023-01-28T03:40:57;16.15;;;7.07;;
53718;SDS011;39616;48.872;9.390;2023-01-28T03:43:29;15.90;;;7.60;;
53718;SDS011;39616;48.872;9.390;2023-01-28T03:45:59;13.40;;;7.35;;
53718;SDS011;39616;48.872;9.390;2023-01-28T03:48:30;16.13;;;8.43;;
53718;SDS011;39616;48.872;9.390;2023-01-28T03:51:01;14.73;;;7.38;;
53718;SDS011;39616;48.872;9.390;2023-01-28T03:53:31;15.60;;;8.27;;
53718;SDS011;39616;48.872;9.390;2023-01-28T03:56:02;15.52;;;7.38;;
53718;SDS011;39616;48.872;9.390;2023-01-28T03:58:32;13.02;;;6.93;;
53718;SDS011;39616;48.872;9.390;2023-01-28T04:01:21;12.77;;;7.15;;
53718;SDS011;39616;48.872;9.390;2023-01-28T04:03:51;13.38;;;7.03;;
53718;SDS011;39616;48.872;9.390;2023-01-28T04:06:21;15.40;;;8.55;;
53718;SDS011;39616;48.872;9.390;2023-01-28T04:08:52;12.50;;;6.30;;
53718;SDS011;39616;48.872;9.390;2023-01-28T04:11:24;15.63;;;7.90;;
53718;SDS011;39616;48.872;9.390;2023-01-28T04:13:55;14.23;;;7.43;;
53718;SDS011;39616;48.872;9.390;2023-01-28T04:16:25;14.50;;;7.18;;
53718;SDS011;39616;48.872;9.390;2023-01-28T04:18:55;16.30;;;8.10;;
53718;SDS011;39616;48.872;9.390;2023-01-28T04:21:26;15.98;;;7.53;;
53718;SDS011;39616;48.872;9.390;2023-01-28T04:23:57;12.57;;;7.22;;
53718;SDS011;39616;48.872;9.390;2023-01-28T04:26:27;15.07;;;8.70;;
53718;SDS011;39616;48.872;9.390;2023-01-28T04:28:57;13.75;;;6.57;;
53718;SDS011;39616;48.872;9.390;2023-01-28T04:31:28;13.02;;;6.82;;
53718;SDS011;39616;48.872;9.390;2023-01-28T04:33:59;14.43;;;7.07;;
53718;SDS011;39616;48.872;9.390;2023-01-28T04:36:29;13.55;;;7.22;;
53718;SDS011;39616;48.872;9.390;2023-01-28T04:39:00;11.52;;;6.35;;
53718;SDS011;39616;48.872;9.390;2023-01-28T04:41:30;17.13;;;8.60;;
53718;SDS011;39616;48.872;9.390;2023-01-28T04:44:00;14.68;;;6.90;;
53718;SDS011;39616;48.872;9.390;2023-01-28T04:46:31;12.90;;;7.22;;
53718;SDS011;39616;48.872;9.390;2023-01-28T04:49:01;14.32;;;6.57;;
53718;SDS011;39616;48.872;9.390;2023-01-28T04:51:32;12.00;;;6.88;;
53718;SDS011;39616;48.872;9.390;2023-01-28T04:54:02;13.38;;;6.93;;
53718;SDS011;39616;48.872;9.390;2023-01-28T04:56:33;12.75;;;5.93;;
53718;SDS011;39616;48.872;9.390;2023-01-28T04:59:03;12.20;;;6.60;;
53718;SDS011;39616;48.872;9.390;2023-01-28T05:01:33;11.77;;;6.43;;
53718;SDS011;39616;48.872;9.390;2023-01-28T05:04:04;13.43;;;7.22;;
53718;SDS011;39616;48.872;9.390;2023-01-28T05:06:34;12.70;;;6.82;;
53718;SDS011;39616;48.872;9.390;2023-01-28T05:09:05;18.15;;;6.57;;
53718;SDS011;39616;48.872;9.390;2023-01-28T05:11:35;12.93;;;6.60;;
53718;SDS011;39616;48.872;9.390;2023-01-28T05:14:05;15.80;;;6.30;;
53718;SDS011;39616;48.872;9.390;2023-01-28T05:16:36;9.48;;;5.43;;
53718;SDS011;39616;48.872;9.390;2023-01-28T05:19:06;11.88;;;6.53;;
53718;SDS011;39616;48.872;9.390;2023-01-28T05:21:37;13.93;;;6.40;;
53718;SDS011;39616;48.872;9.390;2023-01-28T05:24:07;15.75;;;6.88;;
53718;SDS011;39616;48.872;9.390;2023-01-28T05:26:37;12.18;;;6.65;;
53718;SDS011;39616;48.872;9.390;2023-01-28T05:29:08;16.15;;;6.13;;
53718;SDS011;39616;48.872;9.390;2023-01-28T05:31:38;14.70;;;7.70;;
53718;SDS011;39616;48.872;9.390;2023-01-28T05:34:09;12.82;;;6.45;;
53718;SDS011;39616;48.872;9.390;2023-01-28T05:36:39;15.02;;;7.53;;
53718;SDS011;39616;48.872;9.390;2023-01-28T05:39:12;15.15;;;7.30;;
53718;SDS011;39616;48.872;9.390;2023-01-28T05:41:42;17.23;;;8.50;;
53718;SDS011;39616;48.872;9.390;2023-01-28T05:44:13;17.13;;;8.55;;
53718;SDS011;39616;48.872;9.390;2023-01-28T05:46:43;16.08;;;8.23;;
53718;SDS011;39616;48.872;9.390;2023-01-28T05:49:15;16.23;;;7.63;;
53718;SDS011;39616;48.872;9.390;2023-01-28T05:51:45;15.25;;;8.27;;
53718;SDS011;39616;48.872;9.390;2023-01-28T05:54:17;15.05;;;8.20;;
53718;SDS011;39616;48.872;9.390;2023-01-28T05:56:47;19.95;;;9.07;;
53718;SDS011;39616;48.872;9.390;2023-01-28T05:59:18;18.73;;;10.27;;
53718;SDS011;39616;48.872;9.390;2023-01-28T06:01:48;19.52;;;11.15;;
53718;SDS011;39616;48.872;9.390;2023-01-28T06:04:18;17.40;;;9.85;;
53718;SDS011;39616;48.872;9.390;2023-01-28T06:06:49;16.73;;;8.35;;
53718;SDS011;39616;48.872;9.390;2023-01-28T06:09:19;14.43;;;7.72;;
53718;SDS011;39616;48.872;9.390;2023-01-28T06:11:49;21.58;;;9.32;;
53718;SDS011;39616;48.872;9.390;2023-01-28T06:14:20;13.98;;;8.10;;
53718;SDS011;39616;48.872;9.390;2023-01-28T06:16:50;15.48;;;7.80;;
53718;SDS011;39616;48.872;9.390;2023-01-28T06:19:21;16.40;;;8.18;;
53718;SDS011;39616;48.872;9.390;2023-01-28T06:21:51;21.20;;;8.52;;
53718;SDS011;39616;48.872;9.390;2023-01-28T06:24:21;15.95;;;7.60;;
53718;SDS011;39616;48.872;9.390;2023-01-28T06:26:54;18.23;;;8.73;;
53718;SDS011;39616;48.872;9.390;2023-01-28T06:29:24;18.48;;;8.00;;
53718;SDS011;39616;48.872;9.390;2023-01-28T06:31:55;19.15;;;8.48;;
53718;SDS011;39616;48.872;9.390;2023-01-28T06:34:25;18.20;;;7.95;;
53718;SDS011;39616;48.872;9.390;2023-01-28T06:36:55;16.52;;;8.27;;
53718;SDS011;39616;48.872;9.390;2023-01-28T06:39:25;15.15;;;7.57;;
53718;SDS011;39616;48.872;9.390;2023-01-28T06:41:58;17.80;;;8.63;;
53718;SDS011;39616;48.872;9.390;2023-01-28T06:44:28;19.20;;;9.05;;
53718;SDS011;39616;48.872;9.390;2023-01-28T06:47:01;17.88;;;8.43;;
53718;SDS011;39616;48.872;9.390;2023-01-28T06:49:32;17.55;;;9.48;;
53718;SDS011;39616;48.872;9.390;2023-01-28T06:52:02;20.67;;;8.95;;
53718;SDS011;39616;48.872;9.390;2023-01-28T06:54:33;14.75;;;8.90;;
53718;SDS011;39616;48.872;9.390;2023-01-28T06:57:03;16.38;;;8.85;;
53718;SDS011;39616;48.872;9.390;2023-01-28T06:59:34;20.30;;;9.82;;
53718;SDS011;39616;48.872;9.390;2023-01-28T07:02:04;16.13;;;8.57;;
53718;SDS011;39616;48.872;9.390;2023-01-28T07:04:34;15.48;;;8.43;;
53718;SDS011;39616;48.872;9.390;2023-01-28T07:07:05;38.05;;;14.25;;
53718;SDS011;39616;48.872;9.390;2023-01-28T07:09:35;51.35;;;17.13;;
53718;SDS011;39616;48.872;9.390;2023-01-28T07:12:06;61.05;;;21.23;;
53718;SDS011;39616;48.872;9.390;2023-01-28T07:14:36;43.92;;;17.38;;
53718;SDS011;39616;48.872;9.390;2023-01-28T07:17:06;26.60;;;12.52;;
53718;SDS011;39616;48.872;9.390;2023-01-28T07:19:37;29.58;;;14.13;;
53718;SDS011;39616;48.872;9.390;2023-01-28T07:22:07;26.30;;;12.90;;
53718;SDS011;39616;48.872;9.390;2023-01-28T07:24:37;19.42;;;10.02;;
53718;SDS011;39616;48.872;9.390;2023-01-28T07:27:07;18.15;;;10.05;;
53718;SDS011;39616;48.872;9.390;2023-01-28T07:29:38;17.40;;;10.23;;
53718;SDS011;39616;48.872;9.390;2023-01-28T07:32:08;17.27;;;9.05;;
53718;SDS011;39616;48.872;9.390;2023-01-28T07:34:38;18.77;;;9.48;;
53718;SDS011;39616;48.872;9.390;2023-01-28T07:37:11;20.73;;;9.45;;
53718;SDS011;39616;48.872;9.390;2023-01-28T07:39:42;19.88;;;10.38;;
53718;SDS011;39616;48.872;9.390;2023-01-28T07:42:12;17.63;;;9.65;;
53718;SDS011;39616;48.872;9.390;2023-01-28T07:44:43;19.55;;;9.73;;
53718;SDS011;39616;48.872;9.390;2023-01-28T07:47:13;19.25;;;10.98;;
53718;SDS011;39616;48.872;9.390;2023-01-28T07:49:43;18.73;;;9.68;;
53718;SDS011;39616;48.872;9.390;2023-01-28T07:52:14;18.17;;;9.45;;
53718;SDS011;39616;48.872;9.390;2023-01-28T07:54:44;17.90;;;9.63;;
53718;SDS011;39616;48.872;9.390;2023-01-28T07:57:15;18.90;;;9.85;;
53718;SDS011;39616;48.872;9.390;2023-01-28T07:59:52;17.80;;;9.40;;
53718;SDS011;39616;48.872;9.390;2023-01-28T08:02:22;20.58;;;10.23;;
53718;SDS011;39616;48.872;9.390;2023-01-28T08:04:52;18.55;;;9.65;;
53718;SDS011;39616;48.872;9.390;2023-01-28T08:07:22;23.60;;;10.40;;
53718;SDS011;39616;48.872;9.390;2023-01-28T08:09:53;23.15;;;10.50;;
53718;SDS011;39616;48.872;9.390;2023-01-28T08:12:23;16.88;;;9.80;;
53718;SDS011;39616;48.872;9.390;2023-01-28T08:14:53;15.25;;;8.82;;
53718;SDS011;39616;48.872;9.390;2023-01-28T08:17:24;27.45;;;10.07;;
53718;SDS011;39616;48.872;9.390;2023-01-28T08:19:54;19.52;;;9.27;;
53718;SDS011;39616;48.872;9.390;2023-01-28T08:22:25;17.05;;;9.27;;
53718;SDS011;39616;48.872;9.390;2023-01-28T08:24:56;15.52;;;9.27;;
53718;SDS011;39616;48.872;9.390;2023-01-28T08:27:26;22.08;;;10.70;;
53718;SDS011;39616;48.872;9.390;2023-01-28T08:29:56;17.23;;;8.75;;
53718;SDS011;39616;48.872;9.390;2023-01-28T08:32:28;17.85;;;9.68;;
53718;SDS011;39616;48.872;9.390;2023-01-28T08:34:59;17.77;;;9.93;;
53718;SDS011;39616;48.872;9.390;2023-01-28T08:37:29;19.00;;;9.98;;
53718;SDS011;39616;48.872;9.390;2023-01-28T08:40:00;23.92;;;10.88;;
53718;SDS011;39616;48.872;9.390;2023-01-28T08:42:30;22.40;;;11.10;;
53718;SDS011;39616;48.872;9.390;2023-01-28T08:45:01;19.73;;;10.23;;
53718;SDS011;39616;48.872;9.390;2023-01-28T08:47:31;19.88;;;10.05;;
53718;SDS011;39616;48.872;9.390;2023-01-28T08:50:01;20.80;;;10.20;;
53718;SDS011;39616;48.872;9.390;2023-01-28T08:52:31;21.60;;;10.38;;
53718;SDS011;39616;48.872;9.390;2023-01-28T08:55:02;19.67;;;10.02;;
53718;SDS011;39616;48.872;9.390;2023-01-28T08:57:32;21.95;;;10.90;;
53718;SDS011;39616;48.872;9.390;2023-01-28T09:00:03;19.48;;;9.95;;
53718;SDS011;39616;48.872;9.390;2023-01-28T09:02:34;19.90;;;10.30;;
53718;SDS011;39616;48.872;9.390;2023-01-28T09:05:04;22.85;;;11.25;;
53718;SDS011;39616;48.872;9.390;2023-01-28T09:07:36;21.08;;;10.52;;
53718;SDS011;39616;48.872;9.390;2023-01-28T09:10:07;18.38;;;9.48;;
53718;SDS011;39616;48.872;9.390;2023-01-28T09:12:38;21.27;;;10.43;;
53718;SDS011;39616;48.872;9.390;2023-01-28T09:15:08;21.30;;;10.48;;
53718;SDS011;39616;48.872;9.390;2023-01-28T09:17:39;22.83;;;10.73;;
53718;SDS011;39616;48.872;9.390;2023-01-28T09:20:10;22.70;;;10.00;;
53718;SDS011;39616;48.872;9.390;2023-01-28T09:22:41;18.45;;;9.73;;
53718;SDS011;39616;48.872;9.390;2023-01-28T09:25:12;17.58;;;9.57;;
53718;SDS011;39616;48.872;9.390;2023-01-28T09:27:42;21.65;;;11.27;;
53718;SDS011;39616;48.872;9.390;2023-01-28T09:30:12;19.60;;;10.13;;
53718;SDS011;39616;48.872;9.390;2023-01-28T09:32:43;25.17;;;10.85;;
53718;SDS011;39616;48.872;9.390;2023-01-28T09:35:13;18.92;;;10.07;;
53718;SDS011;39616;48.872;9.390;2023-01-28T09:37:44;21.00;;;11.13;;
53718;SDS011;39616;48.872;9.390;2023-01-28T09:40:57;19.48;;;10.43;;
53718;SDS011;39616;48.872;9.390;2023-01-28T09:46:04;19.85;;;9.75;;
53718;SDS011;39616;48.872;9.390;2023-01-28T09:48:40;21.58;;;9.95;;
53718;SDS011;39616;48.872;9.390;2023-01-28T09:54:02;23.23;;;10.73;;
53718;SDS011;39616;48.872;9.390;2023-01-28T09:56:41;19.50;;;10.50;;
53718;SDS011;39616;48.872;9.390;2023-01-28T09:59:17;21.07;;;9.83;;
53718;SDS011;39616;48.872;9.390;2023-01-28T10:15:49;27.20;;;11.23;;
53718;SDS011;39616;48.872;9.390;2023-01-28T10:18:33;21.23;;;10.77;;
53718;SDS011;39616;48.872;9.390;2023-01-28T10:21:21;21.38;;;11.07;;
53718;SDS011;39616;48.872;9.390;2023-01-28T10:24:00;26.88;;;10.45;;
53718;SDS011;39616;48.872;9.390;2023-01-28T10:26:38;19.27;;;10.02;;
53718;SDS011;39616;48.872;9.390;2023-01-28T10:29:20;22.67;;;11.23;;
53718;SDS011;39616;48.872;9.390;2023-01-28T10:31:58;21.42;;;10.85;;
53718;SDS011;39616;48.872;9.390;2023-01-28T10:34:30;21.63;;;10.07;;
53718;SDS011;39616;48.872;9.390;2023-01-28T10:37:01;20.77;;;10.43;;
53718;SDS011;39616;48.872;9.390;2023-01-28T10:39:31;24.30;;;10.15;;
53718;SDS011;39616;48.872;9.390;2023-01-28T10:42:09;20.50;;;10.20;;
53718;SDS011;39616;48.872;9.390;2023-01-28T10:45:00;21.73;;;9.52;;
53718;SDS011;39616;48.872;9.390;2023-01-28T10:47:40;21.70;;;9.52;;
53718;SDS011;39616;48.872;9.390;2023-01-28T10:50:21;23.45;;;11.02;;
53718;SDS011;39616;48.872;9.390;2023-01-28T10:55:29;19.45;;;9.85;;
53718;SDS011;39616;48.872;9.390;2023-01-28T10:58:21;22.00;;;10.77;;
53718;SDS011;39616;48.872;9.390;2023-01-28T11:00:54;21.13;;;9.88;;
53718;SDS011;39616;48.872;9.390;2023-01-28T11:03:26;18.88;;;9.75;;
53718;SDS011;39616;48.872;9.390;2023-01-28T11:06:00;18.42;;;9.23;;
53718;SDS011;39616;48.872;9.390;2023-01-28T11:08:41;24.80;;;11.45;;
53718;SDS011;39616;48.872;9.390;2023-01-28T11:11:13;19.50;;;9.15;;
53718;SDS011;39616;48.872;9.390;2023-01-28T11:13:50;22.15;;;10.32;;
53718;SDS011;39616;48.872;9.390;2023-01-28T11:16:23;24.33;;;11.98;;
53718;SDS011;39616;48.872;9.390;2023-01-28T11:18:58;23.85;;;11.70;;
53718;SDS011;39616;48.872;9.390;2023-01-28T11:21:33;22.05;;;10.43;;
53718;SDS011;39616;48.872;9.390;2023-01-28T11:24:05;24.75;;;12.65;;
53718;SDS011;39616;48.872;9.390;2023-01-28T11:26:44;23.48;;;11.88;;
53718;SDS011;39616;48.872;9.390;2023-01-28T11:29:22;20.27;;;10.65;;
53718;SDS011;39616;48.872;9.390;2023-01-28T11:31:59;22.00;;;10.45;;
53718;SDS011;39616;48.872;9.390;2023-01-28T11:34:32;23.90;;;11.20;;
53718;SDS011;39616;48.872;9.390;2023-01-28T11:37:09;21.75;;;10.32;;
53718;SDS011;39616;48.872;9.390;2023-01-28T11:39:45;22.17;;;10.55;;
53718;SDS011;39616;48.872;9.390;2023-01-28T11:42:18;23.90;;;11.90;;
53718;SDS011;39616;48.872;9.390;2023-01-28T11:44:50;24.90;;;12.38;;
53718;SDS011;39616;48.872;9.390;2023-01-28T11:49:58;20.73;;;10.10;;
53718;SDS011;39616;48.872;9.390;2023-01-28T11:55:51;23.83;;;11.52;;
53718;SDS011;39616;48.872;9.390;2023-01-28T12:01:34;26.95;;;10.70;;
53718;SDS011;39616;48.872;9.390;2023-01-28T12:07:25;22.77;;;9.55;;
53718;SDS011;39616;48.872;9.390;2023-01-28T12:18:31;24.63;;;11.73;;
53718;SDS011;39616;48.872;9.390;2023-01-28T12:27:06;22.30;;;9.52;;
53718;SDS011;39616;48.872;9.390;2023-01-28T12:29:55;19.33;;;8.63;;
53718;SDS011;39616;48.872;9.390;2023-01-28T12:35:52;21.27;;;9.45;;
53718;SDS011;39616;48.872;9.390;2023-01-28T12:38:49;25.30;;;10.95;;
53718;SDS011;39616;48.872;9.390;2023-01-28T12:41:30;20.25;;;8.48;;
53718;SDS011;39616;48.872;9.390;2023-01-28T12:44:04;18.23;;;8.18;;
53718;SDS011;39616;48.872;9.390;2023-01-28T12:46:48;13.85;;;7.10;;
53718;SDS011;39616;48.872;9.390;2023-01-28T12:52:09;14.18;;;5.85;;
53718;SDS011;39616;48.872;9.390;2023-01-28T12:54:52;10.10;;;5.57;;
53718;SDS011;39616;48.872;9.390;2023-01-28T12:57:29;14.32;;;6.78;;
53718;SDS011;39616;48.872;9.390;2023-01-28T13:05:40;17.55;;;8.65;;
53718;SDS011;39616;48.872;9.390;2023-01-28T13:08:27;16.92;;;7.75;;
53718;SDS011;39616;48.872;9.390;2023-01-28T13:10:59;18.00;;;7.72;;
53718;SDS011;39616;48.872;9.390;2023-01-28T13:16:04;17.45;;;8.15;;
53718;SDS011;39616;48.872;9.390;2023-01-28T13:26:40;19.27;;;8.73;;
53718;SDS011;39616;48.872;9.390;2023-01-28T13:31:53;16.63;;;7.72;;
53718;SDS011;39616;48.872;9.390;2023-01-28T13:34:27;15.35;;;8.00;;
53718;SDS011;39616;48.872;9.390;2023-01-28T13:37:14;16.73;;;8.98;;
53718;SDS011;39616;48.872;9.390;2023-01-28T13:40:05;14.50;;;7.00;;
53718;SDS011;39616;48.872;9.390;2023-01-28T13:42:38;16.42;;;8.60;;
53718;SDS011;39616;48.872;9.390;2023-01-28T13:47:46;15.02;;;7.18;;
53718;SDS011;39616;48.872;9.390;2023-01-28T13:50:38;14.65;;;7.97;;
53718;SDS011;39616;48.872;9.390;2023-01-28T13:56:00;14.38;;;6.57;;
53718;SDS011;39616;48.872;9.390;2023-01-28T14:15:41;14.95;;;6.82;;
53718;SDS011;39616;48.872;9.390;2023-01-28T14:18:36;11.35;;;5.10;;
53718;SDS011;39616;48.872;9.390;2023-01-28T14:21:12;9.15;;;6.25;;
53718;SDS011;39616;48.872;9.390;2023-01-28T14:23:46;11.20;;;6.50;;
53718;SDS011;39616;48.872;9.390;2023-01-28T14:26:42;11.00;;;6.32;;
53718;SDS011;39616;48.872;9.390;2023-01-28T14:32:07;11.48;;;5.65;;
53718;SDS011;39616;48.872;9.390;2023-01-28T14:34:44;7.32;;;4.40;;
53718;SDS011;39616;48.872;9.390;2023-01-28T14:37:17;8.23;;;4.93;;
53718;SDS011;39616;48.872;9.390;2023-01-28T14:39:51;10.15;;;4.70;;
53718;SDS011;39616;48.872;9.390;2023-01-28T14:42:26;8.80;;;4.70;;
53718;SDS011;39616;48.872;9.390;2023-01-28T14:45:13;6.50;;;4.28;;
53718;SDS011;39616;48.872;9.390;2023-01-28T14:47:55;10.65;;;6.38;;
53718;SDS011;39616;48.872;9.390;2023-01-28T14:50:49;20.90;;;11.40;;
53718;SDS011;39616;48.872;9.390;2023-01-28T14:59:17;7.68;;;4.60;;
53718;SDS011;39616;48.872;9.390;2023-01-28T15:01:53;11.55;;;5.18;;
53718;SDS011;39616;48.872;9.390;2023-01-28T15:07:11;13.10;;;10.05;;
53718;SDS011;39616;48.872;9.390;2023-01-28T15:09:46;7.15;;;5.07;;
53718;SDS011;39616;48.872;9.390;2023-01-28T15:12:17;10.25;;;7.60;;
53718;SDS011;39616;48.872;9.390;2023-01-28T15:14:47;11.10;;;6.28;;
53718;SDS011;39616;48.872;9.390;2023-01-28T15:17:21;13.00;;;7.72;;
53718;SDS011;39616;48.872;9.390;2023-01-28T15:19:55;8.52;;;5.00;;
53718;SDS011;39616;48.872;9.390;2023-01-28T15:22:26;8.77;;;4.63;;
53718;SDS011;39616;48.872;9.390;2023-01-28T15:24:57;10.18;;;5.45;;
53718;SDS011;39616;48.872;9.390;2023-01-28T15:27:28;9.88;;;5.45;;
53718;SDS011;39616;48.872;9.390;2023-01-28T15:29:59;9.45;;;4.55;;
53718;SDS011;39616;48.872;9.390;2023-01-28T15:32:31;11.10;;;5.25;;
53718;SDS011;39616;48.872;9.390;2023-01-28T15:35:01;9.23;;;5.90;;
53718;SDS011;39616;48.872;9.390;2023-01-28T15:37:41;12.35;;;9.63;;
53718;SDS011;39616;48.872;9.390;2023-01-28T15:40:18;7.68;;;5.25;;
53718;SDS011;39616;48.872;9.390;2023-01-28T15:42:51;9.38;;;5.18;;
53718;SDS011;39616;48.872;9.390;2023-01-28T15:45:23;9.27;;;5.03;;
53718;SDS011;39616;48.872;9.390;2023-01-28T15:48:03;11.05;;;5.10;;
53718;SDS011;39616;48.872;9.390;2023-01-28T15:50:35;9.43;;;4.78;;
53718;SDS011;39616;48.872;9.390;2023-01-28T15:53:07;11.93;;;5.85;;
53718;SDS011;39616;48.872;9.390;2023-01-28T15:55:43;9.13;;;4.85;;
53718;SDS011;39616;48.872;9.390;2023-01-28T16:00:44;7.63;;;4.90;;
53718;SDS011;39616;48.872;9.390;2023-01-28T16:03:20;7.75;;;4.05;;
53718;SDS011;39616;48.872;9.390;2023-01-28T16:05:52;7.70;;;4.57;;
53718;SDS011;39616;48.872;9.390;2023-01-28T16:08:33;10.13;;;4.72;;
53718;SDS011;39616;48.872;9.390;2023-01-28T16:11:09;7.15;;;4.63;;
53718;SDS011;39616;48.872;9.390;2023-01-28T16:13:41;8.02;;;4.70;;
53718;SDS011;39616;48.872;9.390;2023-01-28T16:16:13;7.57;;;4.90;;
53718;SDS011;39616;48.872;9.390;2023-01-28T16:18:47;6.95;;;4.10;;
53718;SDS011;39616;48.872;9.390;2023-01-28T16:21:23;6.40;;;4.13;;
53718;SDS011;39616;48.872;9.390;2023-01-28T16:24:03;14.77;;;8.38;;
53718;SDS011;39616;48.872;9.390;2023-01-28T16:26:35;13.25;;;4.80;;
53718;SDS011;39616;48.872;9.390;2023-01-28T16:29:13;7.20;;;4.30;;
53718;SDS011;39616;48.872;9.390;2023-01-28T16:31:44;9.27;;;5.60;;
53718;SDS011;39616;48.872;9.390;2023-01-28T16:34:14;10.68;;;6.00;;
53718;SDS011;39616;48.872;9.390;2023-01-28T16:36:45;8.73;;;4.70;;
53718;SDS011;39616;48.872;9.390;2023-01-28T16:39:15;18.77;;;7.40;;
53718;SDS011;39616;48.872;9.390;2023-01-28T16:41:45;8.75;;;5.15;;
53718;SDS011;39616;48.872;9.390;2023-01-28T16:44:17;10.38;;;4.97;;
53718;SDS011;39616;48.872;9.390;2023-01-28T16:46:48;7.35;;;5.32;;
53718;SDS011;39616;48.872;9.390;2023-01-28T16:49:18;7.90;;;4.72;;
53718;SDS011;39616;48.872;9.390;2023-01-28T16:51:48;7.03;;;4.97;;
53718;SDS011;39616;48.872;9.390;2023-01-28T16:54:19;9.15;;;4.80;;
53718;SDS011;39616;48.872;9.390;2023-01-28T16:56:49;11.00;;;5.40;;
53718;SDS011;39616;48.872;9.390;2023-01-28T16:59:19;8.32;;;5.30;;
53718;SDS011;39616;48.872;9.390;2023-01-28T17:01:50;10.40;;;6.38;;
53718;SDS011;39616;48.872;9.390;2023-01-28T17:04:20;7.88;;;5.25;;
53718;SDS011;39616;48.872;9.390;2023-01-28T17:06:50;5.65;;;3.70;;
53718;SDS011;39616;48.872;9.390;2023-01-28T17:09:21;6.22;;;4.82;;
53718;SDS011;39616;48.872;9.390;2023-01-28T17:11:53;8.55;;;4.97;;
53718;SDS011;39616;48.872;9.390;2023-01-28T17:14:23;8.18;;;5.40;;
53718;SDS011;39616;48.872;9.390;2023-01-28T17:16:53;7.82;;;4.32;;
53718;SDS011;39616;48.872;9.390;2023-01-28T17:19:24;8.90;;;4.78;;
53718;SDS011;39616;48.872;9.390;2023-01-28T17:21:54;11.07;;;5.55;;
53718;SDS011;39616;48.872;9.390;2023-01-28T17:24:24;8.65;;;5.25;;
53718;SDS011;39616;48.872;9.390;2023-01-28T17:26:55;8.50;;;4.80;;
53718;SDS011;39616;48.872;9.390;2023-01-28T17:29:25;10.25;;;5.13;;
53718;SDS011;39616;48.872;9.390;2023-01-28T17:31:55;8.05;;;5.30;;
53718;SDS011;39616;48.872;9.390;2023-01-28T17:34:26;8.55;;;5.35;;
53718;SDS011;39616;48.872;9.390;2023-01-28T17:36:56;11.10;;;5.70;;
53718;SDS011;39616;48.872;9.390;2023-01-28T17:39:26;9.85;;;4.75;;
53718;SDS011;39616;48.872;9.390;2023-01-28T17:41:57;9.60;;;5.18;;